Time;durP1;ratioP1;P1;durP2;ratioP2;P2;SDS_P1;SDS_P2;PMS_P1;PMS_P2;Temp;Humidity;BMP_temperature;BMP_pressure;BME280_temperature;BME280_humidity;BME280_pressure;Samples;Min_cycle;Max_cycle;Signal;HPM_P1;HPM_P2
2022/08/23 00:01:51;;;;;;;9.15;3.00;;;;;;;;;;5094431;28;20474;-80
2022/08/23 00:04:19;;;;;;;8.20;2.97;;;;;;;;;;5094594;28;20058;-79
2022/08/23 00:06:46;;;;;;;10.82;3.90;;;;;;;;;;5075197;28;20053;-80
2022/08/23 00:09:12;;;;;;;10.43;4.05;;;;;;;;;;5094598;28;20030;-79
2022/08/23 00:11:43;;;;;;;9.50;3.15;;;;;;;;;;5076310;28;20102;-79
2022/08/23 00:14:14;;;;;;;8.13;3.42;;;;;;;;;;5094710;28;20074;-79
2022/08/23 00:16:41;;;;;;;12.70;3.28;;;;;;;;;;5094578;28;20021;-80
2022/08/23 00:19:08;;;;;;;8.05;3.08;;;;;;;;;;5094531;28;20024;-80
2022/08/23 00:21:35;;;;;;;8.52;2.97;;;;;;;;;;5094369;28;20128;-80
2022/08/23 00:24:02;;;;;;;12.98;2.90;;;;;;;;;;5094257;28;20066;-79
2022/08/23 00:26:48;;;;;;;8.05;3.42;;;;;;;;;;5076343;28;20024;-80
2022/08/23 00:29:14;;;;;;;7.05;3.08;;;;;;;;;;5095099;28;20462;-80
2022/08/23 00:31:40;;;;;;;6.25;2.80;;;;;;;;;;5094503;28;20028;-80
2022/08/23 00:34:06;;;;;;;8.75;3.00;;;;;;;;;;5076068;28;20027;-79
2022/08/23 00:36:32;;;;;;;11.43;3.47;;;;;;;;;;5094100;28;20070;-79
2022/08/23 00:38:58;;;;;;;14.00;3.70;;;;;;;;;;5094489;28;20128;-79
2022/08/23 00:41:25;;;;;;;7.53;2.83;;;;;;;;;;5094123;28;20024;-80
2022/08/23 00:49:27;;;;;;;9.75;3.42;;;;;;;;;;5073977;28;20502;-79
2022/08/23 00:51:59;;;;;;;5.72;2.95;;;;;;;;;;5055681;28;20111;-79
2022/08/23 00:54:27;;;;;;;7.43;3.63;;;;;;;;;;5055409;28;20021;-80
2022/08/23 00:56:54;;;;;;;8.82;3.00;;;;;;;;;;5073690;28;20459;-80
2022/08/23 00:59:21;;;;;;;7.20;3.20;;;;;;;;;;5073522;28;20065;-79
2022/08/23 01:01:47;;;;;;;9.63;3.60;;;;;;;;;;5073499;28;20095;-80
2022/08/23 01:04:15;;;;;;;6.50;3.58;;;;;;;;;;5083680;28;20364;-80
2022/08/23 01:06:46;;;;;;;7.60;3.70;;;;;;;;;;5093769;28;20030;-79
2022/08/23 01:09:14;;;;;;;12.80;4.07;;;;;;;;;;5093884;28;20072;-79
2022/08/23 01:11:44;;;;;;;7.30;3.47;;;;;;;;;;5075313;28;20462;-79
2022/08/23 01:14:13;;;;;;;13.77;4.03;;;;;;;;;;5075191;28;20115;-79
2022/08/23 01:16:44;;;;;;;13.68;3.80;;;;;;;;;;5093367;28;20102;-80
2022/08/23 01:19:14;;;;;;;11.63;3.88;;;;;;;;;;5074803;28;20020;-80
2022/08/23 01:21:46;;;;;;;11.82;3.50;;;;;;;;;;5093434;28;20024;-80
2022/08/23 01:24:13;;;;;;;8.73;3.72;;;;;;;;;;5074833;28;20051;-80
2022/08/23 01:26:39;;;;;;;10.23;4.50;;;;;;;;;;5093182;28;20118;-80
2022/08/23 01:29:06;;;;;;;11.43;4.43;;;;;;;;;;5074841;28;20569;-80
2022/08/23 01:31:33;;;;;;;8.43;3.92;;;;;;;;;;5092909;28;20111;-80
2022/08/23 01:34:09;;;;;;;8.75;3.65;;;;;;;;;;5093375;28;20351;-79
2022/08/23 01:36:36;;;;;;;14.05;3.70;;;;;;;;;;5092771;28;20020;-80
2022/08/23 01:39:03;;;;;;;9.75;4.97;;;;;;;;;;5074598;28;20031;-80
2022/08/23 01:41:30;;;;;;;9.10;3.80;;;;;;;;;;5092836;28;20023;-80
2022/08/23 01:43:56;;;;;;;5.93;3.60;;;;;;;;;;5074784;28;20119;-80
2022/08/23 01:46:23;;;;;;;11.13;3.85;;;;;;;;;;5092863;28;20036;-80
2022/08/23 01:48:50;;;;;;;7.50;3.80;;;;;;;;;;5092735;28;20110;-80
2022/08/23 01:51:18;;;;;;;7.55;3.50;;;;;;;;;;5092701;28;20382;-80
2022/08/23 01:53:48;;;;;;;6.88;3.53;;;;;;;;;;5091208;28;20390;-79
2022/08/23 01:56:14;;;;;;;8.45;3.97;;;;;;;;;;5092995;28;20047;-80
2022/08/23 01:58:40;;;;;;;12.60;4.07;;;;;;;;;;5104511;28;20072;-80
2022/08/23 02:01:06;;;;;;;12.07;3.80;;;;;;;;;;5111742;28;20146;-80
2022/08/23 02:03:33;;;;;;;12.88;4.43;;;;;;;;;;5112865;28;20077;-79
2022/08/23 02:05:59;;;;;;;7.57;4.20;;;;;;;;;;5094703;28;20028;-80
2022/08/23 02:11:13;;;;;;;10.23;4.43;;;;;;;;;;5113120;28;20039;-79
2022/08/23 02:13:40;;;;;;;9.95;5.45;;;;;;;;;;5111322;28;20028;-80
2022/08/23 02:16:06;;;;;;;9.82;5.60;;;;;;;;;;5112645;28;20019;-80
2022/08/23 02:18:32;;;;;;;9.20;5.13;;;;;;;;;;5111381;28;20039;-80
2022/08/23 02:20:59;;;;;;;7.85;5.03;;;;;;;;;;5111227;28;20035;-79
2022/08/23 02:23:25;;;;;;;11.70;5.20;;;;;;;;;;5112850;28;20030;-79
2022/08/23 02:25:51;;;;;;;12.77;5.40;;;;;;;;;;5112450;28;20386;-79
2022/08/23 02:28:18;;;;;;;12.00;5.10;;;;;;;;;;5111167;28;20102;-79
2022/08/23 02:30:44;;;;;;;9.48;4.80;;;;;;;;;;5114568;28;20026;-79
2022/08/23 02:33:11;;;;;;;8.98;4.30;;;;;;;;;;5115267;28;20016;-80
2022/08/23 02:35:37;;;;;;;9.98;5.38;;;;;;;;;;5115343;28;20173;-79
2022/08/23 02:38:04;;;;;;;8.88;4.97;;;;;;;;;;5116864;28;20020;-80
2022/08/23 02:40:30;;;;;;;8.50;5.00;;;;;;;;;;5116525;28;20126;-79
2022/08/23 02:42:58;;;;;;;9.23;4.78;;;;;;;;;;5116700;28;20024;-79
2022/08/23 02:45:24;;;;;;;8.07;4.90;;;;;;;;;;5114007;28;20023;-79
2022/08/23 02:47:50;;;;;;;9.43;4.82;;;;;;;;;;5078329;28;20032;-79
2022/08/23 02:50:16;;;;;;;11.85;4.30;;;;;;;;;;5077660;28;20042;-79
2022/08/23 02:52:42;;;;;;;10.68;4.80;;;;;;;;;;5095823;28;20028;-79
2022/08/23 02:55:08;;;;;;;9.07;4.57;;;;;;;;;;5077828;28;20073;-79
2022/08/23 02:57:35;;;;;;;8.50;5.18;;;;;;;;;;5095927;28;20028;-79
2022/08/23 03:00:01;;;;;;;10.43;4.95;;;;;;;;;;5096076;28;20038;-79
2022/08/23 03:02:27;;;;;;;17.02;4.72;;;;;;;;;;5095955;28;20028;-79
2022/08/23 03:04:53;;;;;;;10.80;5.28;;;;;;;;;;5093614;28;20118;-79
2022/08/23 03:07:19;;;;;;;13.18;5.35;;;;;;;;;;5116203;28;20385;-79
2022/08/23 03:09:45;;;;;;;20.02;5.40;;;;;;;;;;5116229;28;20027;-79
2022/08/23 03:12:11;;;;;;;13.52;6.07;;;;;;;;;;5097993;28;20020;-79
2022/08/23 03:14:37;;;;;;;8.48;4.68;;;;;;;;;;5116457;28;20034;-79
2022/08/23 03:17:06;;;;;;;11.63;5.68;;;;;;;;;;5116377;28;20157;-79
2022/08/23 03:19:32;;;;;;;11.43;4.95;;;;;;;;;;5115829;28;20675;-80
2022/08/23 03:21:58;;;;;;;9.98;5.03;;;;;;;;;;5116103;28;20053;-79
2022/08/23 03:24:24;;;;;;;14.13;5.13;;;;;;;;;;5097565;28;20141;-79
2022/08/23 03:26:51;;;;;;;10.13;5.43;;;;;;;;;;5116230;28;20133;-80
2022/08/23 03:29:18;;;;;;;8.52;4.45;;;;;;;;;;5097437;28;20076;-79
2022/08/23 03:31:44;;;;;;;9.13;5.25;;;;;;;;;;5115654;28;20443;-79
2022/08/23 03:34:11;;;;;;;13.88;5.90;;;;;;;;;;5115745;28;20020;-79
2022/08/23 03:36:37;;;;;;;16.80;5.35;;;;;;;;;;5097214;28;20030;-79
2022/08/23 03:39:04;;;;;;;11.18;4.75;;;;;;;;;;5115848;28;20020;-79
2022/08/23 03:41:30;;;;;;;10.13;5.07;;;;;;;;;;5114241;28;20498;-79
2022/08/23 03:43:56;;;;;;;6.13;4.30;;;;;;;;;;5115602;28;20084;-79
2022/08/23 03:46:22;;;;;;;9.18;4.45;;;;;;;;;;5114410;28;20028;-80
2022/08/23 03:48:52;;;;;;;7.28;4.00;;;;;;;;;;5114014;28;20389;-79
2022/08/23 03:51:19;;;;;;;10.07;4.07;;;;;;;;;;5115308;28;20020;-79
2022/08/23 03:53:46;;;;;;;7.45;4.15;;;;;;;;;;5114087;28;20534;-79
2022/08/23 03:56:20;;;;;;;10.68;5.10;;;;;;;;;;5115542;28;20015;-79
2022/08/23 03:58:47;;;;;;;12.52;5.35;;;;;;;;;;5115654;28;20055;-79
2022/08/23 04:01:13;;;;;;;10.98;5.18;;;;;;;;;;5114443;28;20019;-80
2022/08/23 04:03:39;;;;;;;11.05;5.43;;;;;;;;;;5114836;28;20465;-79
2022/08/23 04:06:05;;;;;;;13.45;6.30;;;;;;;;;;5115025;28;20034;-79
2022/08/23 04:08:31;;;;;;;14.02;7.82;;;;;;;;;;5115745;28;20023;-79
2022/08/23 04:10:57;;;;;;;12.40;7.65;;;;;;;;;;5114818;28;20019;-79
2022/08/23 04:13:24;;;;;;;13.05;8.40;;;;;;;;;;5115058;28;20020;-79
2022/08/23 04:15:50;;;;;;;21.10;8.18;;;;;;;;;;5114916;28;20152;-79
2022/08/23 04:18:16;;;;;;;11.70;7.28;;;;;;;;;;5114554;28;20023;-79
2022/08/23 04:20:42;;;;;;;13.95;8.25;;;;;;;;;;5114941;28;20031;-79
2022/08/23 04:23:08;;;;;;;15.68;8.60;;;;;;;;;;5115010;28;20386;-79
2022/08/23 04:25:34;;;;;;;11.80;8.90;;;;;;;;;;5115002;28;20035;-79
2022/08/23 04:28:01;;;;;;;14.10;8.65;;;;;;;;;;5114754;28;20031;-79
2022/08/23 04:30:27;;;;;;;16.88;8.90;;;;;;;;;;5114827;28;20028;-80
2022/08/23 04:32:53;;;;;;;12.40;8.40;;;;;;;;;;5114550;28;20019;-80
2022/08/23 04:35:19;;;;;;;28.90;9.02;;;;;;;;;;5096846;28;20296;-79
2022/08/23 04:37:45;;;;;;;13.68;7.93;;;;;;;;;;5114484;28;20831;-79
2022/08/23 04:42:56;;;;;;;17.25;9.70;;;;;;;;;;5114816;28;20035;-80
2022/08/23 04:45:22;;;;;;;15.73;9.43;;;;;;;;;;5114902;28;20024;-80
2022/08/23 04:47:49;;;;;;;20.38;10.63;;;;;;;;;;5114450;28;20458;-80
2022/08/23 04:50:15;;;;;;;17.25;9.48;;;;;;;;;;5114501;28;20031;-80
2022/08/23 04:52:41;;;;;;;14.50;8.15;;;;;;;;;;5113826;28;20078;-79
2022/08/23 04:55:08;;;;;;;14.98;8.65;;;;;;;;;;5114504;28;20016;-80
2022/08/23 04:57:34;;;;;;;16.10;9.02;;;;;;;;;;5114270;28;20024;-80
2022/08/23 05:00:00;;;;;;;21.83;10.05;;;;;;;;;;5114054;28;20064;-80
2022/08/23 05:02:26;;;;;;;20.08;10.20;;;;;;;;;;5114156;28;20093;-80
2022/08/23 05:04:52;;;;;;;21.55;9.85;;;;;;;;;;5095166;28;20491;-79
2022/08/23 05:07:18;;;;;;;18.15;9.35;;;;;;;;;;5095504;28;20020;-80
2022/08/23 05:09:44;;;;;;;13.30;8.77;;;;;;;;;;5113914;28;20372;-80
2022/08/23 05:12:11;;;;;;;18.10;9.43;;;;;;;;;;5095602;28;20520;-80
2022/08/23 05:14:37;;;;;;;16.50;9.13;;;;;;;;;;5095956;28;20039;-80
2022/08/23 05:17:03;;;;;;;15.70;9.63;;;;;;;;;;5114079;28;20086;-80
2022/08/23 05:19:29;;;;;;;19.33;9.70;;;;;;;;;;5095121;28;20047;-80
2022/08/23 05:21:55;;;;;;;16.50;9.93;;;;;;;;;;5113710;28;20031;-80
2022/08/23 05:24:21;;;;;;;18.85;10.00;;;;;;;;;;5113761;28;20028;-80
2022/08/23 05:26:47;;;;;;;16.48;10.20;;;;;;;;;;5095420;28;20028;-79
2022/08/23 05:29:14;;;;;;;19.33;10.20;;;;;;;;;;5113793;28;20020;-80
2022/08/23 05:31:40;;;;;;;23.85;10.05;;;;;;;;;;5113577;28;20023;-80
2022/08/23 05:34:06;;;;;;;26.92;12.55;;;;;;;;;;5113608;28;20099;-79
2022/08/23 05:36:33;;;;;;;21.77;10.38;;;;;;;;;;5094850;28;20118;-80
2022/08/23 05:38:59;;;;;;;27.67;11.05;;;;;;;;;;5111966;28;20023;-80
2022/08/23 05:41:25;;;;;;;18.58;9.73;;;;;;;;;;5113437;28;20043;-80
2022/08/23 05:43:51;;;;;;;16.33;9.75;;;;;;;;;;5094747;28;20027;-80
2022/08/23 05:46:19;;;;;;;17.83;10.30;;;;;;;;;;5094656;28;20031;-79
2022/08/23 05:48:46;;;;;;;26.38;10.93;;;;;;;;;;5121391;27;20023;-79
2022/08/23 05:51:15;;;;;;;16.83;9.38;;;;;;;;;;5129605;27;20016;-80
2022/08/23 05:53:41;;;;;;;22.70;9.25;;;;;;;;;;5113165;28;20016;-79
2022/08/23 05:56:16;;;;;;;18.13;10.23;;;;;;;;;;5133080;27;20023;-79
2022/08/23 05:58:43;;;;;;;25.13;11.32;;;;;;;;;;5133419;27;20039;-79
2022/08/23 06:01:09;;;;;;;16.95;10.23;;;;;;;;;;5115360;27;20031;-79
2022/08/23 06:03:36;;;;;;;16.77;8.52;;;;;;;;;;5133882;27;20027;-79
2022/08/23 06:06:02;;;;;;;17.48;9.00;;;;;;;;;;5114374;27;20058;-80
2022/08/23 06:08:28;;;;;;;21.85;9.35;;;;;;;;;;5116098;27;20035;-79
2022/08/23 06:11:05;;;;;;;16.83;8.80;;;;;;;;;;5133536;27;20023;-79
2022/08/23 06:13:31;;;;;;;20.88;9.02;;;;;;;;;;5118722;27;20043;-79
2022/08/23 06:15:58;;;;;;;18.77;10.88;;;;;;;;;;5124176;27;20015;-79
2022/08/23 06:18:25;;;;;;;23.92;10.15;;;;;;;;;;5097875;28;20123;-79
2022/08/23 06:21:01;;;;;;;13.05;9.48;;;;;;;;;;5094414;28;20028;-79
2022/08/23 06:23:28;;;;;;;15.43;9.75;;;;;;;;;;5113289;28;20068;-79
2022/08/23 06:25:54;;;;;;;13.88;9.60;;;;;;;;;;5112911;28;20027;-79
2022/08/23 06:28:20;;;;;;;15.57;9.60;;;;;;;;;;5113005;28;20022;-79
2022/08/23 06:30:46;;;;;;;22.08;9.05;;;;;;;;;;5112902;28;20023;-79
2022/08/23 06:33:12;;;;;;;21.17;10.48;;;;;;;;;;5131497;28;20034;-78
2022/08/23 06:35:39;;;;;;;15.60;9.35;;;;;;;;;;5133477;28;20068;-79
2022/08/23 06:38:05;;;;;;;16.88;8.20;;;;;;;;;;5128138;28;20085;-80
2022/08/23 06:40:34;;;;;;;16.88;8.55;;;;;;;;;;5105561;28;20462;-80
2022/08/23 06:43:00;;;;;;;16.42;8.93;;;;;;;;;;5133252;28;20375;-80
2022/08/23 06:45:27;;;;;;;15.57;8.40;;;;;;;;;;5128348;28;20023;-79
2022/08/23 06:47:54;;;;;;;17.92;10.07;;;;;;;;;;5112572;28;20474;-79
2022/08/23 06:50:20;;;;;;;17.30;9.23;;;;;;;;;;5123449;28;20023;-79
2022/08/23 06:52:47;;;;;;;18.35;9.20;;;;;;;;;;5112989;28;20022;-80
2022/08/23 06:55:13;;;;;;;19.33;9.25;;;;;;;;;;5120937;28;20031;-79
2022/08/23 06:57:39;;;;;;;12.90;9.57;;;;;;;;;;5132940;28;20031;-79
2022/08/23 07:00:07;;;;;;;15.73;8.90;;;;;;;;;;5133459;28;20106;-79
2022/08/23 07:02:33;;;;;;;26.08;9.07;;;;;;;;;;5133118;28;20090;-79
2022/08/23 07:04:59;;;;;;;18.27;8.68;;;;;;;;;;5116442;28;20083;-79
2022/08/23 07:07:26;;;;;;;14.80;9.00;;;;;;;;;;5113238;28;20075;-79
2022/08/23 07:09:53;;;;;;;17.63;9.23;;;;;;;;;;5115476;28;20027;-79
2022/08/23 07:12:19;;;;;;;14.23;8.35;;;;;;;;;;5126113;28;20042;-79
2022/08/23 07:14:46;;;;;;;16.05;8.85;;;;;;;;;;5112691;28;20020;-79
2022/08/23 07:17:15;;;;;;;16.67;8.30;;;;;;;;;;5133218;27;20019;-79
2022/08/23 07:19:42;;;;;;;15.93;8.93;;;;;;;;;;5096153;28;20091;-79
2022/08/23 07:22:09;;;;;;;17.85;8.30;;;;;;;;;;5095756;28;20446;-79
2022/08/23 07:24:36;;;;;;;13.60;7.75;;;;;;;;;;5127478;27;20027;-79
2022/08/23 07:27:08;;;;;;;12.32;8.43;;;;;;;;;;5137094;27;20080;-79
2022/08/23 07:29:35;;;;;;;18.80;8.77;;;;;;;;;;5136773;27;20117;-79
2022/08/23 07:32:02;;;;;;;15.32;8.23;;;;;;;;;;5126978;27;20024;-79
2022/08/23 07:34:28;;;;;;;19.05;9.63;;;;;;;;;;5130941;27;20023;-79
2022/08/23 07:36:54;;;;;;;17.17;9.27;;;;;;;;;;5116062;28;20446;-79
2022/08/23 07:39:21;;;;;;;15.52;7.90;;;;;;;;;;5116216;28;20020;-80
2022/08/23 07:41:47;;;;;;;16.27;8.43;;;;;;;;;;5130648;27;20031;-79
2022/08/23 07:44:14;;;;;;;15.60;9.50;;;;;;;;;;5136974;27;20023;-79
2022/08/23 07:46:41;;;;;;;20.05;8.77;;;;;;;;;;5127284;27;20019;-79
2022/08/23 07:49:08;;;;;;;22.23;9.85;;;;;;;;;;5136714;27;20420;-79
2022/08/23 07:51:34;;;;;;;18.17;7.82;;;;;;;;;;5136685;27;20027;-79
2022/08/23 07:54:04;;;;;;;23.33;10.40;;;;;;;;;;5124397;27;20094;-79
2022/08/23 07:56:30;;;;;;;14.27;9.52;;;;;;;;;;5115946;28;20023;-79
2022/08/23 07:58:57;;;;;;;21.60;9.32;;;;;;;;;;5115198;28;20048;-79
2022/08/23 08:01:25;;;;;;;13.88;9.43;;;;;;;;;;5115739;28;20493;-79
2022/08/23 08:03:53;;;;;;;14.38;8.13;;;;;;;;;;5115294;28;20034;-79
2022/08/23 08:06:30;;;;;;;11.07;7.53;;;;;;;;;;5115676;28;20355;-79
2022/08/23 08:08:57;;;;;;;17.10;7.50;;;;;;;;;;5118609;27;20076;-80
2022/08/23 08:11:25;;;;;;;15.88;9.32;;;;;;;;;;5135806;27;20030;-83
2022/08/23 08:13:52;;;;;;;13.70;7.95;;;;;;;;;;5135510;27;20034;-81
2022/08/23 08:16:23;;;;;;;14.65;7.60;;;;;;;;;;5115335;28;20482;-81
2022/08/23 08:18:49;;;;;;;17.50;7.13;;;;;;;;;;5115470;28;20012;-81
2022/08/23 08:21:17;;;;;;;13.05;7.85;;;;;;;;;;5114896;28;20027;-82
2022/08/23 08:23:43;;;;;;;14.13;7.07;;;;;;;;;;5115098;28;20024;-81
2022/08/23 08:26:10;;;;;;;11.40;6.65;;;;;;;;;;5096811;28;20019;-82
2022/08/23 08:28:36;;;;;;;14.48;7.00;;;;;;;;;;5096039;28;20026;-82
2022/08/23 08:31:02;;;;;;;11.07;6.53;;;;;;;;;;5096871;28;20067;-82
2022/08/23 08:33:29;;;;;;;12.35;6.03;;;;;;;;;;5115649;28;20020;-82
2022/08/23 08:35:55;;;;;;;13.32;7.10;;;;;;;;;;5115167;28;20373;-82
2022/08/23 08:38:21;;;;;;;14.45;7.50;;;;;;;;;;5099326;27;20023;-82
2022/08/23 08:40:50;;;;;;;15.77;6.32;;;;;;;;;;5116821;27;20035;-81
2022/08/23 08:43:27;;;;;;;15.07;6.55;;;;;;;;;;5117039;27;20496;-81
2022/08/23 08:46:05;;;;;;;17.00;7.25;;;;;;;;;;5128669;27;20035;-81
2022/08/23 08:48:41;;;;;;;31.60;7.45;;;;;;;;;;5096534;28;20062;-81
2022/08/23 08:51:16;;;;;;;19.05;8.07;;;;;;;;;;5115298;28;20031;-82
2022/08/23 08:53:45;;;;;;;17.10;7.55;;;;;;;;;;5097186;27;20031;-81
2022/08/23 08:56:19;;;;;;;16.08;8.18;;;;;;;;;;5135519;27;20484;-81
2022/08/23 08:58:48;;;;;;;15.75;6.93;;;;;;;;;;5134954;27;20112;-81
2022/08/23 09:01:18;;;;;;;29.30;8.52;;;;;;;;;;5114859;28;20027;-81
2022/08/23 09:03:44;;;;;;;15.65;7.53;;;;;;;;;;5114679;28;20035;-81
2022/08/23 09:06:16;;;;;;;14.65;6.78;;;;;;;;;;5114808;28;20111;-81
2022/08/23 09:09:01;;;;;;;15.30;6.85;;;;;;;;;;5096551;28;20027;-81
2022/08/23 09:11:27;;;;;;;16.38;7.32;;;;;;;;;;5114666;28;20027;-81
2022/08/23 09:13:54;;;;;;;15.25;7.35;;;;;;;;;;5096584;27;20032;-82
2022/08/23 09:16:35;;;;;;;14.95;6.75;;;;;;;;;;5134943;27;20089;-82
2022/08/23 09:19:02;;;;;;;14.27;7.78;;;;;;;;;;5121926;27;20408;-81
2022/08/23 09:21:32;;;;;;;13.48;7.05;;;;;;;;;;5116436;27;20409;-81
2022/08/23 09:23:59;;;;;;;15.73;6.85;;;;;;;;;;5135099;27;20027;-81
2022/08/23 09:26:28;;;;;;;11.63;6.10;;;;;;;;;;5118799;27;20026;-81
2022/08/23 09:29:15;;;;;;;15.57;6.97;;;;;;;;;;5113588;28;20016;-82
2022/08/23 09:31:43;;;;;;;13.00;5.43;;;;;;;;;;5113523;28;20591;-82
2022/08/23 09:34:14;;;;;;;12.82;6.18;;;;;;;;;;5113919;28;20164;-81
2022/08/23 09:36:40;;;;;;;10.93;6.60;;;;;;;;;;5110043;28;20030;-82
2022/08/23 09:39:09;;;;;;;14.00;6.97;;;;;;;;;;5095577;28;20110;-81
2022/08/23 09:41:36;;;;;;;18.52;6.75;;;;;;;;;;5127737;27;20015;-82
2022/08/23 09:44:04;;;;;;;11.60;5.63;;;;;;;;;;5114453;28;20036;-82
2022/08/23 09:46:31;;;;;;;22.90;5.80;;;;;;;;;;5113614;28;20051;-83
2022/08/23 09:48:59;;;;;;;9.80;5.53;;;;;;;;;;5113406;28;20019;-82
2022/08/23 09:51:33;;;;;;;21.80;7.00;;;;;;;;;;5113252;28;20027;-79
2022/08/23 09:54:17;;;;;;;11.80;6.15;;;;;;;;;;5113805;28;20028;-81
2022/08/23 09:56:44;;;;;;;17.58;6.07;;;;;;;;;;5124666;27;20023;-80
2022/08/23 09:59:25;;;;;;;14.68;5.50;;;;;;;;;;5113398;28;20039;-81
2022/08/23 10:01:53;;;;;;;14.83;6.10;;;;;;;;;;5113406;28;20059;-81
2022/08/23 10:04:23;;;;;;;11.82;5.72;;;;;;;;;;5113381;27;20695;-81
2022/08/23 10:06:49;;;;;;;8.57;5.90;;;;;;;;;;5132433;27;20094;-80
2022/08/23 10:09:42;;;;;;;16.13;5.93;;;;;;;;;;5093097;28;20032;-80
2022/08/23 10:12:08;;;;;;;13.80;5.20;;;;;;;;;;5090619;28;20507;-80
2022/08/23 10:14:34;;;;;;;14.73;5.45;;;;;;;;;;5081290;28;20180;-80
2022/08/23 10:17:15;;;;;;;13.27;6.20;;;;;;;;;;5113374;28;20053;-81
2022/08/23 10:19:41;;;;;;;12.87;4.73;;;;;;;;;;5112555;28;20015;-81
2022/08/23 10:22:13;;;;;;;7.72;3.75;;;;;;;;;;5113299;28;20019;-80
2022/08/23 10:24:59;;;;;;;8.45;3.80;;;;;;;;;;5113410;28;20055;-80
2022/08/23 10:30:14;;;;;;;10.75;3.85;;;;;;;;;;5113000;28;20431;-80
2022/08/23 10:32:40;;;;;;;13.30;3.92;;;;;;;;;;5113328;28;20023;-80
2022/08/23 10:35:28;;;;;;;9.93;3.95;;;;;;;;;;5112831;28;20023;-81
2022/08/23 10:38:08;;;;;;;7.15;2.90;;;;;;;;;;5095554;28;20073;-81
2022/08/23 10:40:37;;;;;;;7.53;3.42;;;;;;;;;;5129593;28;20549;-81
2022/08/23 10:43:12;;;;;;;8.88;3.95;;;;;;;;;;5113876;28;20109;-81
2022/08/23 10:45:40;;;;;;;13.60;5.10;;;;;;;;;;5122988;28;20031;-82
2022/08/23 10:48:19;;;;;;;13.95;4.70;;;;;;;;;;5112610;28;20023;-81
2022/08/23 10:50:52;;;;;;;14.45;4.63;;;;;;;;;;5112824;28;20403;-82
2022/08/23 10:53:19;;;;;;;19.95;4.55;;;;;;;;;;5116966;28;20150;-81
2022/08/23 10:56:01;;;;;;;20.50;5.43;;;;;;;;;;5117409;28;20069;-81
2022/08/23 10:58:28;;;;;;;11.70;4.90;;;;;;;;;;5120855;27;20050;-81
2022/08/23 11:00:55;;;;;;;12.00;3.90;;;;;;;;;;5098143;28;20028;-81
2022/08/23 11:03:28;;;;;;;9.27;3.20;;;;;;;;;;5098416;28;20450;-81
2022/08/23 11:06:13;;;;;;;11.13;2.85;;;;;;;;;;5116786;28;20027;-81
2022/08/23 11:08:45;;;;;;;11.63;2.72;;;;;;;;;;5112216;28;20019;-83
2022/08/23 11:11:30;;;;;;;11.50;3.28;;;;;;;;;;5096196;28;20490;-81
2022/08/23 11:13:56;;;;;;;9.40;2.70;;;;;;;;;;5097089;28;20423;-81
2022/08/23 11:16:29;;;;;;;8.93;2.67;;;;;;;;;;5098904;28;20054;-82
2022/08/23 11:18:56;;;;;;;11.05;3.70;;;;;;;;;;5116457;28;20187;-81
2022/08/23 11:21:32;;;;;;;10.60;3.00;;;;;;;;;;5097544;28;20116;-82
2022/08/23 11:23:58;;;;;;;8.18;2.78;;;;;;;;;;5126271;27;20106;-81
2022/08/23 11:26:24;;;;;;;10.68;3.05;;;;;;;;;;5100537;28;20035;-82
2022/08/23 11:28:50;;;;;;;6.97;2.58;;;;;;;;;;5098061;28;20027;-83
2022/08/23 11:31:19;;;;;;;9.90;3.03;;;;;;;;;;5116806;28;20023;-82
2022/08/23 11:33:48;;;;;;;17.77;4.20;;;;;;;;;;5116430;28;20023;-82
2022/08/23 11:36:16;;;;;;;9.90;3.15;;;;;;;;;;5098281;28;20461;-82
2022/08/23 11:38:48;;;;;;;7.85;3.00;;;;;;;;;;5116632;28;20107;-82
2022/08/23 11:41:18;;;;;;;11.70;3.33;;;;;;;;;;5097866;28;20076;-82
2022/08/23 11:43:45;;;;;;;13.07;2.97;;;;;;;;;;5116009;28;20024;-82
2022/08/23 11:46:14;;;;;;;17.02;3.92;;;;;;;;;;5097882;28;20114;-82
2022/08/23 11:48:42;;;;;;;9.75;3.50;;;;;;;;;;5116049;28;20023;-82
2022/08/23 11:51:11;;;;;;;8.13;3.20;;;;;;;;;;5116067;28;20016;-82
2022/08/23 11:53:49;;;;;;;7.88;3.35;;;;;;;;;;5115984;28;20481;-82
2022/08/23 11:56:24;;;;;;;7.53;3.30;;;;;;;;;;5115963;28;20019;-82
2022/08/23 11:58:53;;;;;;;9.88;3.78;;;;;;;;;;5097348;28;20035;-82
2022/08/23 12:01:30;;;;;;;9.25;3.20;;;;;;;;;;5116039;28;20046;-82
2022/08/23 12:04:10;;;;;;;7.13;2.60;;;;;;;;;;5114961;28;20358;-82
2022/08/23 12:06:39;;;;;;;9.00;2.40;;;;;;;;;;5116029;28;20485;-82
2022/08/23 12:09:11;;;;;;;10.82;2.53;;;;;;;;;;5093989;28;20398;-82
2022/08/23 12:12:03;;;;;;;6.25;1.85;;;;;;;;;;5095326;28;20028;-82
2022/08/23 12:14:32;;;;;;;7.00;2.30;;;;;;;;;;5078844;28;20036;-82
2022/08/23 12:17:24;;;;;;;6.45;2.00;;;;;;;;;;5115561;28;20020;-82
2022/08/23 12:19:52;;;;;;;;;;;;;;;;;;5069941;28;20032;-82
2022/08/23 12:22:20;;;;;;;6.13;1.60;;;;;;;;;;5115417;28;19904;-82
2022/08/23 12:24:55;;;;;;;9.05;2.28;;;;;;;;;;5115606;28;20023;-82
2022/08/23 12:27:27;;;;;;;4.45;1.80;;;;;;;;;;5097192;28;20023;-82
2022/08/23 12:30:12;;;;;;;4.05;1.70;;;;;;;;;;5097053;28;20035;-82
2022/08/23 12:32:53;;;;;;;6.22;1.52;;;;;;;;;;5115469;28;20496;-82
2022/08/23 12:35:29;;;;;;;6.00;1.63;;;;;;;;;;5115864;28;20077;-81
2022/08/23 12:37:55;;;;;;;8.40;1.90;;;;;;;;;;5115227;28;20492;-81
2022/08/23 12:40:22;;;;;;;3.83;1.70;;;;;;;;;;5115141;28;20036;-81
2022/08/23 12:42:50;;;;;;;6.57;1.98;;;;;;;;;;5096503;28;20055;-81
2022/08/23 12:45:22;;;;;;;6.28;2.13;;;;;;;;;;5114692;28;20020;-81
2022/08/23 12:47:55;;;;;;;6.22;1.80;;;;;;;;;;5114677;28;20023;-82
2022/08/23 12:50:26;;;;;;;7.65;1.88;;;;;;;;;;5096295;28;20034;-81
2022/08/23 12:53:00;;;;;;;6.43;1.95;;;;;;;;;;5114886;28;20114;-81
2022/08/23 12:55:29;;;;;;;6.47;2.10;;;;;;;;;;5115339;28;20074;-81
2022/08/23 12:57:57;;;;;;;4.28;1.70;;;;;;;;;;5114386;28;20086;-81
2022/08/23 13:00:34;;;;;;;10.10;2.17;;;;;;;;;;5096141;28;20024;-81
2022/08/23 13:03:02;;;;;;;5.53;2.08;;;;;;;;;;5115333;28;20023;-81
2022/08/23 13:05:35;;;;;;;6.47;1.60;;;;;;;;;;5096507;28;20473;-82
2022/08/23 13:08:03;;;;;;;7.30;1.58;;;;;;;;;;5114456;28;20016;-81
2022/08/23 13:10:30;;;;;;;6.85;1.58;;;;;;;;;;5096280;28;20027;-82
2022/08/23 13:12:56;;;;;;;6.30;1.35;;;;;;;;;;5114842;28;20027;-81
2022/08/23 13:15:40;;;;;;;8.10;1.77;;;;;;;;;;5114162;28;20051;-81
2022/08/23 13:18:06;;;;;;;8.35;1.50;;;;;;;;;;5114437;28;20467;-81
2022/08/23 13:20:33;;;;;;;5.00;1.58;;;;;;;;;;5114559;28;20050;-82
2022/08/23 13:23:03;;;;;;;5.82;1.77;;;;;;;;;;5114685;28;20106;-81
2022/08/23 13:25:39;;;;;;;5.00;1.60;;;;;;;;;;5096336;28;20066;-81
2022/08/23 13:28:23;;;;;;;4.63;1.40;;;;;;;;;;5095893;28;20801;-81
2022/08/23 13:31:04;;;;;;;6.90;1.77;;;;;;;;;;5095863;28;20034;-81
2022/08/23 13:33:30;;;;;;;6.73;1.63;;;;;;;;;;5113966;28;20051;-81
2022/08/23 13:36:12;;;;;;;5.95;1.60;;;;;;;;;;5113940;28;20032;-81
2022/08/23 13:38:38;;;;;;;4.65;1.50;;;;;;;;;;5113772;28;20073;-81
2022/08/23 13:41:05;;;;;;;3.47;1.20;;;;;;;;;;5114393;28;20063;-82
2022/08/23 13:43:31;;;;;;;4.38;1.52;;;;;;;;;;5113926;28;20077;-81
2022/08/23 13:46:00;;;;;;;6.28;1.38;;;;;;;;;;5113734;28;20377;-82
2022/08/23 13:48:28;;;;;;;3.78;1.50;;;;;;;;;;5095808;28;20028;-81
2022/08/23 13:51:14;;;;;;;5.10;1.48;;;;;;;;;;5113713;28;20023;-82
2022/08/23 13:53:40;;;;;;;2.40;1.05;;;;;;;;;;5113823;28;20020;-82
2022/08/23 13:56:06;;;;;;;6.50;1.63;;;;;;;;;;5114305;28;20328;-82
2022/08/23 13:58:33;;;;;;;7.47;1.45;;;;;;;;;;5113713;28;20130;-81
2022/08/23 14:01:01;;;;;;;2.88;1.00;;;;;;;;;;5114229;28;20053;-81
2022/08/23 14:03:28;;;;;;;7.18;1.58;;;;;;;;;;5095150;28;20432;-81
2022/08/23 14:05:54;;;;;;;4.82;1.25;;;;;;;;;;5095393;28;20020;-81
2022/08/23 14:08:20;;;;;;;3.75;1.50;;;;;;;;;;5100116;28;20028;-81
2022/08/23 14:10:47;;;;;;;4.80;1.33;;;;;;;;;;5093114;28;20024;-82
2022/08/23 14:13:14;;;;;;;3.67;1.33;;;;;;;;;;5093032;28;20081;-81
2022/08/23 14:15:40;;;;;;;4.13;1.70;;;;;;;;;;5108550;28;20015;-81
2022/08/23 14:18:07;;;;;;;6.10;1.40;;;;;;;;;;5113554;28;20024;-81
2022/08/23 14:20:33;;;;;;;6.93;1.30;;;;;;;;;;5113514;28;20484;-81
2022/08/23 14:22:59;;;;;;;4.60;1.60;;;;;;;;;;5113935;28;20020;-81
2022/08/23 14:25:26;;;;;;;3.97;1.40;;;;;;;;;;5113326;28;20028;-81
2022/08/23 14:27:52;;;;;;;4.75;1.23;;;;;;;;;;5113557;28;20046;-81
2022/08/23 14:30:24;;;;;;;9.15;1.58;;;;;;;;;;5113429;28;20028;-81
2022/08/23 14:32:50;;;;;;;5.90;1.50;;;;;;;;;;5113410;28;20019;-82
2022/08/23 14:35:16;;;;;;;3.90;1.30;;;;;;;;;;5095334;28;20015;-84
2022/08/23 14:37:42;;;;;;;3.03;1.05;;;;;;;;;;5113370;28;20099;-80
2022/08/23 14:40:09;;;;;;;3.08;1.23;;;;;;;;;;5112456;28;20023;-82
2022/08/23 14:42:35;;;;;;;3.55;1.30;;;;;;;;;;5112984;28;20024;-83
2022/08/23 14:45:01;;;;;;;3.53;1.42;;;;;;;;;;5094602;28;20028;-82
2022/08/23 14:47:27;;;;;;;6.28;1.45;;;;;;;;;;5098453;28;20443;-81
2022/08/23 14:49:53;;;;;;;5.03;1.23;;;;;;;;;;5094808;28;20027;-82
2022/08/23 14:52:19;;;;;;;6.35;1.52;;;;;;;;;;5094418;28;20039;-81
2022/08/23 14:54:45;;;;;;;5.20;1.25;;;;;;;;;;5113077;28;20473;-81
2022/08/23 14:57:15;;;;;;;5.35;1.20;;;;;;;;;;5094712;28;20059;-81
2022/08/23 14:59:41;;;;;;;4.85;1.38;;;;;;;;;;5094367;28;20063;-81